Time;durP1;ratioP1;P1;durP2;ratioP2;P2;SDS_P1;SDS_P2;PMS_P1;PMS_P2;Temp;Humidity;BMP_temperature;BMP_pressure;BME280_temperature;BME280_humidity;BME280_pressure;Samples;Min_cycle;Max_cycle;Signal;HPM_P1;HPM_P2
2022/06/26 00:01:56;;;;;;;0.70;0.70;;;17.80;99.90;;;;;;4147466;28;20079;-42
2022/06/26 00:04:17;;;;;;;0.80;0.80;;;18.00;99.90;;;;;;4147242;28;20140;-43
2022/06/26 00:06:38;;;;;;;1.45;0.60;;;18.00;99.90;;;;;;4147079;28;20052;-41
2022/06/26 00:08:59;;;;;;;1.08;0.60;;;17.80;99.90;;;;;;4152751;28;20076;-42
2022/06/26 00:11:20;;;;;;;1.13;0.60;;;17.70;99.90;;;;;;4163162;28;20128;-44
2022/06/26 00:13:41;;;;;;;1.58;0.77;;;17.70;99.90;;;;;;4147084;28;20071;-42
2022/06/26 00:16:02;;;;;;;1.90;0.80;;;17.80;99.90;;;;;;4146789;28;20081;-41
2022/06/26 00:18:23;;;;;;;1.23;0.77;;;17.70;99.90;;;;;;4155295;28;20072;-42
2022/06/26 00:20:47;;;;;;;3.10;0.60;;;17.60;99.90;;;;;;4146815;28;20086;-42
2022/06/26 00:23:08;;;;;;;1.38;0.70;;;17.50;99.90;;;;;;4147052;28;20560;-42
2022/06/26 00:25:29;;;;;;;1.17;0.70;;;17.40;99.90;;;;;;4146763;28;20423;-41
2022/06/26 00:27:50;;;;;;;0.93;0.70;;;17.50;99.90;;;;;;4146890;28;20084;-41
2022/06/26 00:30:13;;;;;;;1.75;0.70;;;17.30;99.90;;;;;;4146915;28;20100;-43
2022/06/26 00:32:33;;;;;;;2.83;0.90;;;17.30;99.90;;;;;;4146721;28;20524;-41
2022/06/26 00:34:54;;;;;;;1.13;0.70;;;17.20;99.90;;;;;;4146706;28;20218;-41
2022/06/26 00:37:15;;;;;;;1.08;0.75;;;17.10;99.90;;;;;;4146540;28;20045;-41
2022/06/26 00:39:36;;;;;;;1.92;1.00;;;17.00;99.90;;;;;;4146562;28;20053;-41
2022/06/26 00:41:57;;;;;;;1.92;0.85;;;17.10;99.90;;;;;;4146521;28;20049;-43
2022/06/26 00:44:23;;;;;;;0.68;0.60;;;17.00;99.90;;;;;;4151986;28;20076;-42
2022/06/26 00:46:45;;;;;;;0.77;0.70;;;17.00;99.90;;;;;;4146507;28;20104;-43
2022/06/26 00:49:06;;;;;;;0.68;0.68;;;17.00;99.90;;;;;;4146946;28;20161;-41
2022/06/26 00:51:27;;;;;;;2.45;0.70;;;16.90;99.90;;;;;;4148692;28;20129;-42
2022/06/26 00:53:48;;;;;;;0.95;0.80;;;16.90;99.90;;;;;;4146283;28;20152;-42
2022/06/26 00:56:09;;;;;;;1.55;0.70;;;16.90;99.90;;;;;;4146337;28;20776;-42
2022/06/26 00:58:30;;;;;;;1.63;0.70;;;17.00;99.90;;;;;;4145486;28;20053;-41
2022/06/26 01:00:51;;;;;;;1.95;0.90;;;17.00;99.90;;;;;;4146368;28;20048;-43
2022/06/26 01:03:12;;;;;;;0.90;0.82;;;17.10;99.90;;;;;;4146127;28;20052;-42
2022/06/26 01:05:32;;;;;;;0.70;0.70;;;17.20;99.90;;;;;;4145959;28;20096;-41
2022/06/26 01:07:53;;;;;;;2.35;0.70;;;16.80;99.90;;;;;;4154300;28;20059;-43
2022/06/26 01:10:14;;;;;;;0.70;0.70;;;16.60;99.90;;;;;;4151381;28;20045;-40
2022/06/26 01:12:35;;;;;;;0.80;0.80;;;16.50;99.90;;;;;;4157254;28;20060;-43
2022/06/26 01:14:56;;;;;;;2.20;0.70;;;16.50;99.90;;;;;;4146241;28;20527;-41
2022/06/26 01:17:17;;;;;;;1.08;0.70;;;16.60;99.90;;;;;;4150152;28;20520;-42
2022/06/26 01:19:39;;;;;;;1.95;0.70;;;16.50;99.90;;;;;;4152205;28;20135;-43
2022/06/26 01:22:00;;;;;;;0.90;0.70;;;16.70;99.90;;;;;;4145847;28;20552;-42
2022/06/26 01:24:21;;;;;;;1.23;0.70;;;16.70;99.90;;;;;;4146074;28;20049;-41
2022/06/26 01:26:42;;;;;;;0.80;0.80;;;16.60;99.90;;;;;;4146146;28;20128;-41
2022/06/26 01:29:06;;;;;;;1.42;1.23;;;16.40;99.90;;;;;;4145612;28;20615;-41
2022/06/26 01:31:27;;;;;;;0.70;0.70;;;16.50;99.90;;;;;;4145868;28;20154;-41
2022/06/26 01:33:49;;;;;;;0.70;0.70;;;16.40;99.90;;;;;;4145932;28;20100;-40
2022/06/26 01:36:10;;;;;;;1.00;1.00;;;16.60;99.90;;;;;;4145794;28;20113;-41
2022/06/26 01:38:32;;;;;;;3.00;0.70;;;16.70;99.90;;;;;;4154367;28;20084;-41
2022/06/26 01:40:54;;;;;;;1.65;0.80;;;16.80;99.90;;;;;;4145474;28;20104;-43
2022/06/26 01:43:18;;;;;;;1.45;0.80;;;16.70;99.90;;;;;;4150152;28;20048;-41
2022/06/26 01:45:43;;;;;;;2.53;1.48;;;16.60;99.90;;;;;;4148209;28;20607;-42
2022/06/26 01:48:05;;;;;;;2.22;0.75;;;16.50;99.90;;;;;;4145794;28;20052;-41
2022/06/26 01:50:26;;;;;;;1.80;1.35;;;16.40;99.90;;;;;;4155869;28;20049;-42
2022/06/26 01:52:47;;;;;;;0.90;0.80;;;16.30;99.90;;;;;;4145575;28;20072;-41
2022/06/26 01:55:08;;;;;;;1.27;0.70;;;16.20;99.90;;;;;;4144369;28;20092;-42
2022/06/26 01:57:29;;;;;;;0.88;0.70;;;16.20;99.90;;;;;;4145451;28;20096;-43
2022/06/26 01:59:49;;;;;;;0.88;0.65;;;16.20;99.90;;;;;;4145438;28;20045;-41
2022/06/26 02:02:14;;;;;;;2.85;0.90;;;16.10;99.90;;;;;;4145688;28;20060;-41
2022/06/26 02:04:34;;;;;;;2.08;1.27;;;16.10;99.90;;;;;;4145331;28;20116;-42
2022/06/26 02:06:56;;;;;;;0.75;0.75;;;16.10;99.90;;;;;;4145556;28;20609;-42
2022/06/26 02:14:36;;;;;;;2.45;0.93;;;16.00;99.90;;;;;;4145961;28;20056;-41
2022/06/26 02:16:56;;;;;;;2.47;0.70;;;16.00;99.90;;;;;;4146020;28;20053;-42
2022/06/26 02:19:17;;;;;;;0.75;0.70;;;15.90;99.90;;;;;;4159438;28;20142;-41
2022/06/26 02:21:39;;;;;;;1.88;0.70;;;15.80;99.90;;;;;;4144867;28;20116;-42
2022/06/26 02:24:00;;;;;;;0.80;0.80;;;15.70;99.90;;;;;;4145089;28;20105;-42
2022/06/26 02:26:21;;;;;;;1.10;0.90;;;15.70;99.90;;;;;;4145024;28;20049;-41
2022/06/26 02:28:42;;;;;;;0.80;0.80;;;15.90;99.90;;;;;;4145318;28;20096;-41
2022/06/26 02:31:03;;;;;;;3.72;0.80;;;15.70;99.90;;;;;;4144996;28;20528;-42
2022/06/26 02:33:24;;;;;;;1.63;0.80;;;15.40;99.90;;;;;;4152771;28;20099;-41
2022/06/26 02:35:46;;;;;;;1.40;0.90;;;15.60;99.90;;;;;;4154787;28;20473;-43
2022/06/26 02:38:07;;;;;;;1.15;0.80;;;15.40;99.90;;;;;;4145029;28;20088;-41
2022/06/26 02:40:30;;;;;;;1.02;0.70;;;15.40;99.90;;;;;;4144854;28;20092;-42
2022/06/26 02:42:51;;;;;;;0.80;0.80;;;15.50;99.90;;;;;;4156802;28;20056;-43
2022/06/26 02:45:12;;;;;;;1.02;0.80;;;15.50;99.90;;;;;;4155717;28;20041;-42
2022/06/26 02:47:33;;;;;;;1.13;1.02;;;15.60;99.90;;;;;;4144622;28;20080;-42
2022/06/26 02:49:54;;;;;;;2.22;0.80;;;15.60;99.90;;;;;;4151752;28;20061;-43
2022/06/26 02:52:15;;;;;;;1.67;0.80;;;15.50;99.90;;;;;;4150304;28;20112;-42
2022/06/26 02:54:36;;;;;;;1.20;0.80;;;15.30;99.90;;;;;;4144804;28;20108;-43
2022/06/26 02:56:57;;;;;;;0.70;0.70;;;15.50;99.90;;;;;;4144866;28;20470;-42
2022/06/26 02:59:17;;;;;;;3.30;0.80;;;15.40;99.90;;;;;;4144869;28;20112;-41
2022/06/26 03:01:38;;;;;;;1.20;0.75;;;15.20;99.90;;;;;;4144766;28;20409;-41
2022/06/26 03:04:02;;;;;;;0.90;0.90;;;15.10;99.90;;;;;;4144613;28;20053;-41
2022/06/26 03:06:23;;;;;;;1.60;0.80;;;15.20;99.90;;;;;;4144658;28;20104;-41
2022/06/26 03:08:44;;;;;;;0.80;0.80;;;15.30;99.90;;;;;;4159319;28;20068;-41
2022/06/26 03:11:05;;;;;;;1.48;0.88;;;15.40;99.90;;;;;;4155946;28;20149;-42
2022/06/26 03:13:26;;;;;;;0.95;0.80;;;15.30;99.90;;;;;;4159492;28;20429;-43
2022/06/26 03:15:47;;;;;;;1.67;1.33;;;15.30;99.90;;;;;;4144400;28;20049;-42
2022/06/26 03:18:08;;;;;;;2.65;1.30;;;15.20;99.90;;;;;;4155138;28;20060;-43
2022/06/26 03:20:29;;;;;;;1.65;0.80;;;15.20;99.90;;;;;;4153814;28;20108;-42
2022/06/26 03:22:50;;;;;;;1.45;0.90;;;15.20;99.90;;;;;;4144411;28;20112;-42
2022/06/26 03:25:11;;;;;;;1.98;0.95;;;15.10;99.90;;;;;;4160729;28;20056;-42
2022/06/26 03:27:32;;;;;;;0.80;0.77;;;15.10;99.90;;;;;;4147664;28;20112;-43
2022/06/26 03:29:54;;;;;;;1.08;0.77;;;15.10;99.90;;;;;;4148529;28;20064;-41
2022/06/26 03:32:14;;;;;;;0.80;0.80;;;15.10;99.90;;;;;;4144192;28;20405;-42
2022/06/26 03:34:36;;;;;;;0.80;0.80;;;15.10;99.90;;;;;;4144281;28;20069;-41
2022/06/26 03:36:57;;;;;;;1.00;0.90;;;15.10;99.90;;;;;;4144195;28;20073;-42
2022/06/26 03:39:17;;;;;;;1.63;0.80;;;15.00;99.90;;;;;;4144519;28;20075;-41
2022/06/26 03:41:38;;;;;;;1.90;0.70;;;15.10;99.90;;;;;;4144381;28;20112;-43
2022/06/26 03:43:59;;;;;;;2.20;0.80;;;15.10;99.90;;;;;;4154612;28;20739;-42
2022/06/26 03:46:20;;;;;;;1.13;1.10;;;15.00;99.90;;;;;;4150736;28;20100;-42
2022/06/26 03:48:42;;;;;;;0.80;0.80;;;14.90;99.90;;;;;;4144240;28;20044;-44
2022/06/26 03:51:04;;;;;;;1.80;1.42;;;14.90;99.90;;;;;;4159933;28;20057;-42
2022/06/26 03:53:25;;;;;;;1.20;0.95;;;14.90;99.90;;;;;;4145508;28;20700;-42
2022/06/26 03:55:46;;;;;;;15.43;1.00;;;15.00;99.90;;;;;;4144106;28;20096;-42
2022/06/26 03:58:06;;;;;;;1.13;0.75;;;15.00;99.90;;;;;;4144086;28;20053;-42
2022/06/26 04:00:28;;;;;;;0.85;0.85;;;15.10;99.90;;;;;;4144316;28;20072;-41
2022/06/26 04:02:48;;;;;;;0.80;0.80;;;15.10;99.90;;;;;;4144107;28;20096;-41
2022/06/26 04:05:09;;;;;;;0.80;0.80;;;15.10;99.90;;;;;;4142789;28;20048;-43
2022/06/26 04:07:31;;;;;;;1.08;0.80;;;15.10;99.90;;;;;;4148574;28;20072;-42
2022/06/26 04:09:52;;;;;;;1.00;0.90;;;15.00;99.90;;;;;;4144312;28;20057;-42
2022/06/26 04:12:16;;;;;;;0.82;0.80;;;15.10;99.90;;;;;;4144691;28;20052;-42
2022/06/26 04:14:37;;;;;;;1.33;1.02;;;14.90;99.90;;;;;;4144005;28;20137;-43
2022/06/26 04:16:58;;;;;;;1.90;0.90;;;15.00;99.90;;;;;;4145584;28;20100;-41
2022/06/26 04:19:19;;;;;;;0.80;0.80;;;15.00;99.90;;;;;;4146890;28;20048;-43
2022/06/26 04:21:39;;;;;;;2.45;0.82;;;14.90;99.90;;;;;;4146104;28;20080;-41
2022/06/26 04:24:00;;;;;;;1.95;0.90;;;14.90;99.90;;;;;;4147247;28;20072;-42
2022/06/26 04:26:21;;;;;;;1.55;0.80;;;14.90;99.90;;;;;;4157781;28;20048;-42
2022/06/26 04:28:42;;;;;;;0.85;0.82;;;15.00;99.90;;;;;;4157432;28;20056;-42
2022/06/26 04:31:03;;;;;;;0.82;0.82;;;15.00;99.90;;;;;;4153389;28;20060;-41
2022/06/26 04:33:24;;;;;;;1.48;1.08;;;15.10;99.90;;;;;;4146718;28;20731;-42
2022/06/26 04:35:45;;;;;;;1.40;0.93;;;15.10;99.90;;;;;;4147093;28;20060;-43
2022/06/26 04:38:06;;;;;;;1.27;0.80;;;15.20;99.90;;;;;;4146449;28;20228;-41
2022/06/26 04:40:27;;;;;;;0.90;0.88;;;15.40;99.90;;;;;;4146951;28;20120;-42
2022/06/26 04:42:48;;;;;;;1.02;0.88;;;15.30;99.90;;;;;;4147144;28;20122;-42
2022/06/26 04:45:10;;;;;;;1.42;1.13;;;15.30;99.90;;;;;;4163202;28;20051;-42
2022/06/26 04:47:31;;;;;;;0.73;0.73;;;15.40;99.90;;;;;;4148893;28;20126;-42
2022/06/26 04:49:52;;;;;;;1.20;0.80;;;15.40;99.90;;;;;;4152705;28;20060;-41
2022/06/26 04:52:14;;;;;;;1.77;0.90;;;15.30;99.90;;;;;;4161977;28;20417;-41
2022/06/26 04:54:35;;;;;;;1.08;0.80;;;15.40;99.90;;;;;;4153222;28;20061;-41
2022/06/26 04:56:56;;;;;;;3.05;0.90;;;15.50;99.90;;;;;;4162982;28;20281;-41
2022/06/26 04:59:16;;;;;;;3.38;1.42;;;15.50;99.90;;;;;;4157574;28;20108;-41
2022/06/26 05:01:37;;;;;;;2.42;0.90;;;15.50;99.90;;;;;;4146689;28;20053;-41
2022/06/26 05:03:59;;;;;;;1.63;0.90;;;15.50;99.90;;;;;;4146414;28;20057;-42
2022/06/26 05:06:20;;;;;;;2.80;0.90;;;15.60;99.90;;;;;;4146615;28;20560;-41
2022/06/26 05:08:41;;;;;;;2.30;1.20;;;15.50;99.90;;;;;;4160890;28;20428;-41
2022/06/26 05:11:02;;;;;;;2.00;0.70;;;15.60;99.90;;;;;;4162994;28;20099;-42
2022/06/26 05:13:23;;;;;;;2.53;0.88;;;15.70;99.90;;;;;;4162901;28;20064;-42
2022/06/26 05:15:44;;;;;;;1.52;1.42;;;15.80;99.90;;;;;;4162259;28;20065;-41
2022/06/26 05:18:05;;;;;;;1.60;0.80;;;15.90;99.90;;;;;;4162042;28;20520;-41
2022/06/26 05:20:25;;;;;;;1.48;0.90;;;15.90;99.90;;;;;;4162274;28;20065;-42
2022/06/26 05:22:46;;;;;;;2.30;0.85;;;15.90;99.90;;;;;;4162355;28;20060;-41
2022/06/26 05:25:07;;;;;;;1.23;1.10;;;15.90;99.90;;;;;;4162237;28;20108;-42
2022/06/26 05:27:28;;;;;;;2.40;0.70;;;15.90;99.90;;;;;;4162803;28;20056;-42
2022/06/26 05:29:50;;;;;;;2.33;0.80;;;16.00;99.90;;;;;;4162197;28;20539;-41
2022/06/26 05:32:11;;;;;;;4.28;0.80;;;16.10;99.90;;;;;;4162154;28;20076;-41
2022/06/26 05:34:32;;;;;;;0.90;0.80;;;16.20;99.90;;;;;;4162291;28;20052;-41
2022/06/26 05:36:52;;;;;;;1.73;0.90;;;16.20;99.90;;;;;;4162327;28;20061;-41
2022/06/26 05:39:13;;;;;;;1.63;0.80;;;16.30;99.90;;;;;;4162134;28;20048;-42
2022/06/26 05:41:35;;;;;;;1.33;1.23;;;16.30;99.90;;;;;;4162055;28;20084;-41
2022/06/26 05:43:55;;;;;;;0.80;0.80;;;16.40;99.90;;;;;;4162428;28;20048;-42
2022/06/26 05:46:16;;;;;;;7.93;0.70;;;16.50;99.90;;;;;;4162082;28;20103;-41
2022/06/26 05:48:37;;;;;;;0.73;0.73;;;16.50;99.90;;;;;;4156920;28;20052;-41
2022/06/26 05:50:58;;;;;;;0.90;0.77;;;16.60;99.90;;;;;;4152068;28;20096;-42
2022/06/26 05:53:19;;;;;;;5.75;1.08;;;16.70;99.90;;;;;;4145055;28;20089;-41
2022/06/26 05:55:41;;;;;;;1.23;0.80;;;16.80;99.90;;;;;;4145270;28;20076;-42
2022/06/26 05:58:02;;;;;;;1.20;1.17;;;16.90;99.90;;;;;;4145149;28;20143;-42
2022/06/26 06:00:29;;;;;;;2.33;1.10;;;17.10;99.90;;;;;;4145493;28;20484;-43
2022/06/26 06:02:50;;;;;;;2.17;0.70;;;17.20;99.90;;;;;;4145278;28;20064;-42
2022/06/26 06:05:11;;;;;;;0.80;0.70;;;17.30;99.90;;;;;;4145307;28;20119;-43
2022/06/26 06:07:32;;;;;;;1.30;0.80;;;17.60;99.90;;;;;;4150085;28;20108;-43
2022/06/26 06:09:53;;;;;;;1.63;0.65;;;17.60;99.90;;;;;;4144995;28;20107;-42
2022/06/26 06:12:14;;;;;;;3.22;0.70;;;17.70;99.90;;;;;;4152957;28;20068;-43
2022/06/26 06:14:35;;;;;;;5.43;0.73;;;17.90;99.90;;;;;;4149865;28;20103;-42
2022/06/26 06:16:56;;;;;;;0.60;0.60;;;18.00;99.90;;;;;;4152833;28;20100;-43
2022/06/26 06:19:17;;;;;;;2.00;0.60;;;18.20;99.90;;;;;;4153878;28;20108;-44
2022/06/26 06:21:38;;;;;;;2.00;0.80;;;18.40;99.90;;;;;;4159097;28;20519;-42
2022/06/26 06:23:59;;;;;;;1.55;1.13;;;18.60;99.90;;;;;;4157322;28;20111;-42
2022/06/26 06:26:23;;;;;;;3.65;0.70;;;18.70;99.90;;;;;;4147432;28;20115;-45
2022/06/26 06:28:45;;;;;;;2.50;0.68;;;18.90;99.90;;;;;;4143879;28;20046;-46
2022/06/26 06:31:06;;;;;;;0.60;0.60;;;19.10;99.90;;;;;;4144045;28;20107;-44
2022/06/26 06:33:27;;;;;;;1.15;0.60;;;19.30;99.90;;;;;;4153161;28;20061;-44
2022/06/26 06:35:48;;;;;;;1.85;0.80;;;19.70;99.90;;;;;;4145926;28;20131;-44
2022/06/26 06:38:09;;;;;;;1.90;0.90;;;20.10;99.90;;;;;;4144794;28;20056;-43
2022/06/26 06:40:30;;;;;;;3.00;0.60;;;20.30;99.90;;;;;;4144470;28;20076;-43
2022/06/26 06:42:51;;;;;;;1.80;0.60;;;20.30;99.90;;;;;;4145930;28;20080;-44
2022/06/26 06:45:12;;;;;;;0.60;0.60;;;20.50;99.90;;;;;;4150947;28;20053;-46
2022/06/26 06:47:33;;;;;;;2.35;0.60;;;20.80;99.90;;;;;;4145873;28;20575;-45
2022/06/26 06:49:55;;;;;;;1.95;0.60;;;21.00;99.90;;;;;;4151219;28;20104;-44
2022/06/26 06:52:16;;;;;;;5.30;1.30;;;21.20;99.90;;;;;;4160218;28;20084;-45
2022/06/26 06:54:37;;;;;;;1.65;0.60;;;21.20;99.90;;;;;;4146064;28;20061;-44
2022/06/26 06:56:58;;;;;;;2.40;0.50;;;21.40;99.90;;;;;;4149493;28;20139;-44
2022/06/26 06:59:19;;;;;;;0.98;0.60;;;21.90;99.90;;;;;;4144786;28;20096;-43
2022/06/26 07:01:40;;;;;;;0.75;0.70;;;21.90;99.90;;;;;;4144951;28;20049;-44
2022/06/26 07:04:01;;;;;;;1.30;0.65;;;22.20;99.90;;;;;;4146562;28;20125;-44
2022/06/26 07:06:22;;;;;;;2.28;0.90;;;22.50;99.90;;;;;;4148325;28;20133;-44
2022/06/26 07:08:43;;;;;;;1.27;0.60;;;22.80;99.90;;;;;;4155196;28;20049;-42
2022/06/26 07:11:03;;;;;;;3.42;0.60;;;22.70;99.90;;;;;;4147880;28;20052;-45
2022/06/26 07:13:24;;;;;;;3.60;1.60;;;22.40;99.90;;;;;;4149738;28;20413;-44
2022/06/26 07:15:45;;;;;;;2.58;0.60;;;22.50;99.90;;;;;;4144365;28;20053;-44
2022/06/26 07:18:06;;;;;;;3.22;0.60;;;22.90;99.90;;;;;;4146155;28;20045;-46
2022/06/26 07:20:27;;;;;;;1.98;0.60;;;23.10;99.90;;;;;;4154900;28;20145;-44
2022/06/26 07:22:48;;;;;;;3.47;0.57;;;23.30;99.90;;;;;;4153787;28;20053;-44
2022/06/26 07:25:14;;;;;;;3.35;0.50;;;23.60;99.90;;;;;;4144245;28;20796;-43
2022/06/26 07:27:36;;;;;;;0.73;0.50;;;23.80;99.90;;;;;;4145862;28;20061;-45
2022/06/26 07:29:57;;;;;;;3.85;0.50;;;24.30;99.90;;;;;;4144673;28;20773;-43
2022/06/26 07:32:18;;;;;;;2.05;0.50;;;24.60;99.90;;;;;;4145949;28;20041;-43
2022/06/26 07:34:39;;;;;;;2.33;0.60;;;24.50;99.90;;;;;;4144214;28;20504;-44
2022/06/26 07:37:00;;;;;;;2.70;0.60;;;24.60;99.90;;;;;;4144255;28;20084;-44
2022/06/26 07:39:23;;;;;;;1.45;0.70;;;24.60;99.90;;;;;;4144417;28;20059;-44
2022/06/26 07:41:45;;;;;;;4.05;0.52;;;24.80;99.90;;;;;;4144294;28;20405;-43
2022/06/26 07:44:06;;;;;;;1.48;0.60;;;25.20;99.90;;;;;;4151571;28;20048;-45
2022/06/26 07:46:27;;;;;;;2.50;0.50;;;25.40;99.90;;;;;;4150488;28;20536;-47
2022/06/26 07:48:48;;;;;;;2.15;1.23;;;25.00;99.90;;;;;;4144398;28;20061;-43
2022/06/26 07:51:09;;;;;;;2.30;0.63;;;25.30;99.90;;;;;;4145576;28;20061;-44
2022/06/26 07:53:31;;;;;;;2.58;0.60;;;25.40;99.90;;;;;;4148747;28;20145;-44
2022/06/26 07:55:52;;;;;;;2.20;0.50;;;25.40;99.90;;;;;;4163883;28;20064;-43
2022/06/26 07:58:12;;;;;;;8.10;0.50;;;25.40;99.20;;;;;;4163484;28;20075;-44
2022/06/26 08:00:33;;;;;;;3.65;0.50;;;25.60;99.30;;;;;;4152698;28;20112;-45
2022/06/26 08:02:54;;;;;;;1.33;0.40;;;25.60;98.70;;;;;;4152739;28;20113;-43
2022/06/26 08:05:14;;;;;;;3.25;0.50;;;25.70;99.10;;;;;;4153413;28;20439;-43
2022/06/26 08:07:35;;;;;;;1.13;0.60;;;25.80;98.90;;;;;;4163404;28;20056;-44
2022/06/26 08:09:56;;;;;;;1.00;0.47;;;26.00;99.00;;;;;;4153094;28;20049;-44
2022/06/26 08:12:16;;;;;;;1.08;0.40;;;26.00;98.80;;;;;;4158092;28;20059;-43
2022/06/26 08:14:37;;;;;;;3.33;0.50;;;26.30;98.50;;;;;;4148752;28;20471;-44
2022/06/26 08:16:58;;;;;;;1.88;0.60;;;26.50;98.60;;;;;;4148527;28;20131;-44
2022/06/26 08:19:19;;;;;;;4.03;0.50;;;26.60;99.90;;;;;;4154976;28;20045;-44
2022/06/26 08:24:19;;;;;;;2.58;0.77;;;27.00;98.20;;;;;;4155378;28;20044;-45
2022/06/26 08:26:40;;;;;;;0.88;0.40;;;27.20;98.00;;;;;;4147882;28;20181;-43
2022/06/26 08:29:02;;;;;;;1.23;0.50;;;27.30;97.20;;;;;;4150657;28;20053;-43
2022/06/26 08:31:23;;;;;;;1.33;0.60;;;27.10;97.80;;;;;;4146815;28;20563;-44
2022/06/26 08:33:43;;;;;;;4.20;0.40;;;27.40;98.50;;;;;;4146866;28;20052;-43
2022/06/26 08:36:05;;;;;;;3.75;0.52;;;27.60;97.10;;;;;;4147006;28;20064;-44
2022/06/26 08:38:26;;;;;;;0.68;0.40;;;27.70;97.60;;;;;;4146548;28;20049;-43
2022/06/26 08:40:47;;;;;;;4.20;0.40;;;28.00;96.90;;;;;;4146739;28;20052;-45
2022/06/26 08:43:08;;;;;;;4.07;0.40;;;28.10;97.00;;;;;;4149611;28;20060;-45
2022/06/26 08:45:30;;;;;;;1.83;0.40;;;28.00;97.20;;;;;;4149782;28;20107;-45
2022/06/26 08:47:52;;;;;;;2.42;0.40;;;28.40;97.30;;;;;;4150497;28;20049;-45
2022/06/26 08:50:13;;;;;;;;;;;28.60;98.40;;;;;;4151011;28;20048;-45
2022/06/26 08:52:35;;;;;;;1.88;0.40;;;29.00;97.60;;;;;;4152364;28;19981;-47
2022/06/26 08:54:56;;;;;;;2.22;0.40;;;28.90;96.30;;;;;;4146863;28;20524;-44
2022/06/26 08:57:18;;;;;;;;;;;29.00;98.00;;;;;;4151548;28;20520;-45
2022/06/26 08:59:39;;;;;;;1.33;0.40;;;29.50;97.70;;;;;;4146355;28;20214;-44
2022/06/26 09:01:59;;;;;;;5.78;0.50;;;29.10;95.90;;;;;;4146663;28;20057;-44
2022/06/26 09:04:21;;;;;;;1.80;0.38;;;28.80;97.00;;;;;;4146540;28;20048;-43
2022/06/26 09:06:44;;;;;;;1.53;0.50;;;28.90;95.90;;;;;;4146350;28;20053;-44
2022/06/26 09:09:18;;;;;;;3.60;0.40;;;28.80;96.10;;;;;;4146415;28;20108;-43
2022/06/26 09:11:40;;;;;;;4.85;0.60;;;29.20;95.50;;;;;;4154336;28;20056;-45
2022/06/26 09:14:02;;;;;;;2.17;0.45;;;29.70;96.40;;;;;;4150695;28;20701;-44
2022/06/26 09:16:31;;;;;;;6.90;0.50;;;29.90;95.80;;;;;;4145992;28;20123;-45
2022/06/26 09:18:51;;;;;;;2.97;0.70;;;30.00;95.90;;;;;;4145950;28;20151;-45
2022/06/26 09:21:12;;;;;;;1.35;0.40;;;29.70;96.60;;;;;;4146236;28;20048;-45
2022/06/26 09:23:35;;;;;;;1.70;0.40;;;29.90;94.70;;;;;;4147401;28;20536;-46
2022/06/26 09:25:56;;;;;;;2.80;0.47;;;30.00;92.40;;;;;;4145098;28;20081;-44
2022/06/26 09:28:21;;;;;;;1.58;0.60;;;30.30;94.30;;;;;;4145616;28;20060;-44
2022/06/26 09:31:06;;;;;;;3.28;0.88;;;30.60;93.60;;;;;;4145791;28;20053;-44
2022/06/26 09:33:33;;;;;;;6.35;0.40;;;30.50;93.60;;;;;;4145561;28;20619;-44
2022/06/26 09:35:55;;;;;;;7.95;0.40;;;30.60;92.10;;;;;;4145650;28;20129;-44
2022/06/26 09:38:21;;;;;;;4.15;0.60;;;30.50;92.10;;;;;;4145393;28;20129;-44
2022/06/26 09:40:46;;;;;;;8.65;0.57;;;31.10;92.70;;;;;;4145992;28;20053;-43
2022/06/26 09:43:07;;;;;;;2.45;0.50;;;31.50;92.90;;;;;;4148835;28;20099;-44
2022/06/26 09:45:39;;;;;;;4.03;0.60;;;31.30;90.10;;;;;;4153764;28;20639;-45
2022/06/26 09:48:00;;;;;;;3.40;0.95;;;31.20;90.70;;;;;;4145587;28;20467;-45
2022/06/26 09:50:22;;;;;;;4.43;0.98;;;30.80;91.10;;;;;;4156174;28;20413;-45
2022/06/26 09:52:43;;;;;;;2.80;0.50;;;30.90;90.00;;;;;;4145555;28;20136;-44
2022/06/26 09:55:05;;;;;;;1.10;0.40;;;30.90;90.30;;;;;;4146569;28;20120;-44
2022/06/26 09:57:28;;;;;;;5.10;0.50;;;31.20;87.80;;;;;;4149918;28;20045;-45
2022/06/26 09:59:49;;;;;;;1.90;0.50;;;31.60;90.50;;;;;;4144882;28;20204;-46
2022/06/26 10:07:33;;;;;;;6.13;0.52;;;32.20;88.30;;;;;;4142945;28;20143;-44
2022/06/26 10:09:57;;;;;;;2.67;0.40;;;32.30;85.80;;;;;;4160189;28;20118;-45
2022/06/26 10:12:18;;;;;;;3.08;0.40;;;32.20;85.00;;;;;;4155971;28;20048;-45
2022/06/26 10:14:44;;;;;;;1.40;0.70;;;32.20;84.10;;;;;;4144242;28;20345;-44
2022/06/26 10:17:26;;;;;;;6.22;0.60;;;32.40;85.90;;;;;;4146786;28;20132;-44
2022/06/26 10:20:02;;;;;;;8.52;0.50;;;32.50;85.20;;;;;;4152102;28;20051;-45
2022/06/26 10:22:23;;;;;;;6.32;0.50;;;32.20;84.40;;;;;;4146766;28;20127;-47
2022/06/26 10:24:50;;;;;;;1.88;0.40;;;32.60;82.70;;;;;;4150650;28;20508;-47
2022/06/26 10:27:12;;;;;;;4.53;0.57;;;32.80;85.00;;;;;;4143081;28;20104;-44
2022/06/26 10:29:35;;;;;;;4.25;0.68;;;33.10;86.10;;;;;;4143798;28;20426;-45
2022/06/26 10:31:56;;;;;;;3.28;0.40;;;32.80;84.30;;;;;;4147269;28;20151;-45
2022/06/26 10:34:22;;;;;;;6.18;0.40;;;32.90;83.30;;;;;;4147801;28;20048;-44
2022/06/26 10:37:05;;;;;;;1.75;0.40;;;33.00;80.80;;;;;;4148225;28;20136;-43
2022/06/26 10:39:41;;;;;;;;;;;33.00;85.10;;;;;;4147183;28;20045;-44
2022/06/26 10:44:48;;;;;;;1.27;0.40;;;32.90;82.60;;;;;;4144945;28;20613;-44
2022/06/26 10:47:17;;;;;;;9.00;0.57;;;33.10;84.20;;;;;;4145148;28;20060;-46
2022/06/26 10:49:46;;;;;;;4.68;0.50;;;32.60;79.30;;;;;;4148858;28;20056;-44
2022/06/26 10:52:07;;;;;;;4.90;0.82;;;32.60;81.70;;;;;;4155513;28;20088;-43
2022/06/26 10:54:28;;;;;;;3.25;0.40;;;32.50;82.10;;;;;;4144887;28;20459;-45
2022/06/26 10:57:01;;;;;;;1.02;0.40;;;32.60;83.20;;;;;;4144851;28;20057;-44
2022/06/26 10:59:22;;;;;;;2.97;0.50;;;32.80;80.00;;;;;;4148773;28;20040;-43
2022/06/26 11:01:43;;;;;;;1.85;0.40;;;32.90;81.80;;;;;;4152806;28;20165;-45
2022/06/26 11:04:04;;;;;;;4.00;0.32;;;33.50;80.50;;;;;;4144686;28;20151;-44
2022/06/26 11:06:28;;;;;;;3.63;0.50;;;32.60;77.80;;;;;;4146487;28;20053;-44
2022/06/26 11:08:50;;;;;;;6.70;0.60;;;32.40;78.40;;;;;;4151994;28;20057;-44
2022/06/26 11:11:22;;;;;;;2.45;0.60;;;33.10;79.30;;;;;;4151355;28;20527;-44
2022/06/26 11:14:06;;;;;;;4.78;0.60;;;33.20;76.10;;;;;;4159972;28;20108;-44
2022/06/26 11:16:48;;;;;;;3.90;0.85;;;33.40;82.10;;;;;;4157664;28;20106;-45
2022/06/26 11:19:24;;;;;;;5.80;0.40;;;33.10;77.50;;;;;;4143969;28;20612;-46
2022/06/26 11:21:45;;;;;;;5.05;0.63;;;32.00;77.50;;;;;;4144806;28;20092;-45
2022/06/26 11:24:05;;;;;;;2.63;0.45;;;32.10;78.00;;;;;;4145155;28;20044;-44
2022/06/26 11:26:28;;;;;;;2.28;0.40;;;32.00;79.60;;;;;;4145505;28;20052;-43
2022/06/26 11:28:58;;;;;;;7.43;0.50;;;32.00;78.20;;;;;;4150321;28;20056;-44
2022/06/26 11:31:23;;;;;;;7.45;0.45;;;31.90;79.20;;;;;;4159169;28;20129;-45
2022/06/26 11:33:44;;;;;;;2.08;0.40;;;31.90;77.20;;;;;;4149453;28;20052;-44
2022/06/26 11:36:10;;;;;;;0.82;0.40;;;32.00;79.80;;;;;;4157610;28;20056;-43
2022/06/26 11:38:31;;;;;;;10.73;0.50;;;32.20;77.40;;;;;;4149443;28;20088;-43
2022/06/26 11:40:56;;;;;;;6.75;0.95;;;32.50;78.90;;;;;;4161498;28;20047;-44
2022/06/26 11:43:19;;;;;;;2.33;0.30;;;32.80;78.30;;;;;;4159042;28;20099;-44
2022/06/26 11:45:40;;;;;;;3.17;0.85;;;32.70;80.30;;;;;;4162473;28;20519;-43
2022/06/26 11:48:05;;;;;;;2.03;0.40;;;33.00;74.80;;;;;;4156284;28;20057;-43
2022/06/26 11:50:27;;;;;;;4.90;0.40;;;32.70;75.40;;;;;;4162751;28;20384;-44
2022/06/26 11:52:56;;;;;;;2.88;0.40;;;32.40;75.30;;;;;;4159412;28;20064;-44
2022/06/26 11:55:16;;;;;;;1.88;0.30;;;32.70;79.20;;;;;;4151823;28;20055;-45
2022/06/26 11:57:38;;;;;;;2.38;0.50;;;33.20;75.50;;;;;;4149579;28;20060;-44
2022/06/26 12:00:04;;;;;;;2.45;0.30;;;33.10;77.70;;;;;;4149441;28;20125;-44
2022/06/26 12:02:26;;;;;;;3.03;0.40;;;33.10;75.80;;;;;;4149467;28;20516;-45
2022/06/26 12:05:01;;;;;;;4.53;0.35;;;33.30;77.10;;;;;;4150056;28;20044;-43
2022/06/26 12:07:22;;;;;;;1.40;0.40;;;32.80;77.60;;;;;;4153347;28;20051;-45
2022/06/26 12:09:43;;;;;;;6.55;0.47;;;32.20;78.80;;;;;;4151632;28;20053;-45
2022/06/26 12:12:12;;;;;;;1.65;0.40;;;32.60;79.20;;;;;;4154696;28;20084;-44
2022/06/26 12:14:33;;;;;;;7.00;0.60;;;33.00;78.80;;;;;;4149627;28;20148;-44
2022/06/26 12:16:56;;;;;;;3.35;0.40;;;33.20;76.30;;;;;;4149930;28;20053;-43
2022/06/26 12:19:19;;;;;;;3.40;0.52;;;33.10;83.80;;;;;;4157091;28;20559;-44
2022/06/26 12:21:40;;;;;;;3.55;0.40;;;33.90;78.50;;;;;;4151648;28;20112;-44
2022/06/26 12:24:10;;;;;;;1.77;0.80;;;33.60;79.50;;;;;;4149681;28;20064;-43
2022/06/26 12:26:37;;;;;;;7.15;0.50;;;33.10;76.20;;;;;;4149559;28;20052;-43
2022/06/26 12:29:01;;;;;;;3.10;0.50;;;33.00;75.00;;;;;;4149829;28;20172;-44
2022/06/26 12:31:22;;;;;;;3.30;0.60;;;33.20;78.60;;;;;;4152925;28;20125;-44
2022/06/26 12:33:43;;;;;;;3.78;0.43;;;34.00;75.10;;;;;;4152264;28;20061;-47
2022/06/26 12:36:04;;;;;;;3.88;0.40;;;33.90;74.00;;;;;;4148832;28;20390;-44
2022/06/26 12:38:28;;;;;;;7.07;0.50;;;33.90;76.30;;;;;;4146768;28;20088;-45